Time;durP1;ratioP1;P1;durP2;ratioP2;P2;SDS_P1;SDS_P2;PMS_P1;PMS_P2;Temp;Humidity;BMP_temperature;BMP_pressure;BME280_temperature;BME280_humidity;BME280_pressure;Samples;Min_cycle;Max_cycle;Signal;HPM_P1;HPM_P2
2021/08/03 00:00:06;;;;;;;11.90;11.13;;;15.70;99.90;;;;;;4976675;28;20550;-69
2021/08/03 00:02:35;;;;;;;11.18;10.30;;;15.80;99.90;;;;;;4976715;28;20077;-69
2021/08/03 00:05:03;;;;;;;10.30;9.70;;;15.90;99.90;;;;;;4976594;28;20049;-69
2021/08/03 00:07:34;;;;;;;11.10;10.40;;;16.10;99.90;;;;;;4976565;28;20103;-70
2021/08/03 00:10:05;;;;;;;10.70;10.00;;;16.20;99.90;;;;;;4976490;28;20057;-69
2021/08/03 00:12:33;;;;;;;10.40;9.60;;;16.30;99.90;;;;;;4976327;28;20553;-70
2021/08/03 00:15:00;;;;;;;9.57;8.90;;;16.30;99.90;;;;;;4976394;28;20502;-70
2021/08/03 00:17:28;;;;;;;8.20;7.78;;;16.50;99.90;;;;;;4976277;28;20030;-72
2021/08/03 00:19:55;;;;;;;8.25;7.75;;;16.60;99.90;;;;;;4976289;28;20027;-71
2021/08/03 00:22:24;;;;;;;8.35;7.75;;;16.70;99.90;;;;;;4976192;28;20030;-69
2021/08/03 00:24:52;;;;;;;7.70;7.30;;;16.80;99.90;;;;;;4976241;28;20476;-71
2021/08/03 00:27:20;;;;;;;7.55;7.15;;;16.90;99.90;;;;;;4974846;28;20118;-68
2021/08/03 00:29:48;;;;;;;8.10;7.45;;;16.90;99.90;;;;;;4976024;28;20027;-68
2021/08/03 00:32:15;;;;;;;7.93;7.30;;;16.90;99.90;;;;;;4975752;28;20393;-68
2021/08/03 00:34:42;;;;;;;7.10;6.65;;;17.00;99.90;;;;;;4974747;28;20035;-69
2021/08/03 00:37:10;;;;;;;6.90;6.50;;;17.20;99.90;;;;;;4975890;28;20442;-70
2021/08/03 00:39:38;;;;;;;6.57;6.10;;;17.30;99.90;;;;;;4975836;28;20029;-71
2021/08/03 00:42:07;;;;;;;5.10;4.90;;;17.40;99.90;;;;;;4975839;28;20026;-70
2021/08/03 00:44:42;;;;;;;4.50;4.20;;;17.40;99.90;;;;;;4975672;28;20476;-70
2021/08/03 00:47:11;;;;;;;4.63;4.25;;;17.40;99.90;;;;;;4975861;28;20026;-69
2021/08/03 00:49:39;;;;;;;3.58;3.40;;;17.60;99.90;;;;;;4974426;28;20022;-70
2021/08/03 00:52:09;;;;;;;3.75;3.55;;;17.70;99.90;;;;;;4975694;28;20038;-71
2021/08/03 00:54:37;;;;;;;3.20;2.90;;;17.80;99.90;;;;;;4975577;28;20034;-70
2021/08/03 00:57:07;;;;;;;2.97;2.88;;;17.80;99.90;;;;;;4975575;28;20053;-70
2021/08/03 00:59:35;;;;;;;3.03;2.87;;;17.80;99.90;;;;;;4975718;28;20031;-73
2021/08/03 01:02:07;;;;;;;3.22;2.90;;;17.70;99.90;;;;;;4974060;28;20260;-73
2021/08/03 01:04:35;;;;;;;3.03;2.80;;;17.80;99.90;;;;;;4975367;28;20015;-72
2021/08/03 01:07:12;;;;;;;3.45;3.15;;;18.00;99.90;;;;;;4975464;28;20066;-73
2021/08/03 01:10:12;;;;;;;3.30;3.00;;;18.10;99.70;;;;;;4974045;28;20062;-72
2021/08/03 01:13:06;;;;;;;2.93;2.60;;;18.10;98.60;;;;;;4975220;28;20040;-71
2021/08/03 01:16:07;;;;;;;2.33;2.13;;;18.10;97.20;;;;;;4975202;28;20027;-72
2021/08/03 01:18:45;;;;;;;2.38;2.28;;;18.10;98.00;;;;;;4975210;28;20035;-71
2021/08/03 01:21:51;;;;;;;2.28;2.10;;;18.10;97.30;;;;;;4973794;28;20069;-72
2021/08/03 01:24:25;;;;;;;2.35;2.25;;;18.10;96.50;;;;;;4974993;28;20026;-72
2021/08/03 01:27:20;;;;;;;2.25;2.15;;;18.20;97.20;;;;;;4975049;28;20468;-70
2021/08/03 01:29:50;;;;;;;2.47;2.38;;;18.30;95.80;;;;;;4975081;28;20395;-70
2021/08/03 01:32:26;;;;;;;2.22;2.10;;;18.30;95.20;;;;;;4973500;28;20030;-71
2021/08/03 01:34:54;;;;;;;2.35;2.20;;;18.30;95.50;;;;;;4973372;28;20030;-71
2021/08/03 01:37:24;;;;;;;2.17;2.00;;;18.50;95.60;;;;;;4974937;28;20054;-70
2021/08/03 01:40:00;;;;;;;2.30;2.20;;;18.50;95.80;;;;;;4974668;28;20022;-71
2021/08/03 01:42:28;;;;;;;2.20;2.10;;;18.60;95.10;;;;;;4974052;28;20027;-72
2021/08/03 01:44:59;;;;;;;2.60;2.40;;;18.50;95.50;;;;;;4973071;28;20027;-70
2021/08/03 01:47:27;;;;;;;3.30;2.85;;;18.70;96.70;;;;;;4974776;28;20045;-70
2021/08/03 01:49:57;;;;;;;2.83;2.72;;;18.70;95.20;;;;;;4974607;28;20135;-69
2021/08/03 01:52:25;;;;;;;4.97;2.63;;;18.80;95.40;;;;;;4974575;28;20510;-68
2021/08/03 01:54:54;;;;;;;2.88;2.70;;;18.90;95.70;;;;;;4974338;28;20027;-70
2021/08/03 01:57:23;;;;;;;3.40;3.20;;;18.80;95.10;;;;;;4974402;28;20023;-69
2021/08/03 01:59:53;;;;;;;3.10;2.80;;;18.80;95.00;;;;;;4974349;28;20058;-70
2021/08/03 02:02:21;;;;;;;3.22;2.90;;;18.90;94.70;;;;;;4974327;28;20018;-70
2021/08/03 02:04:50;;;;;;;2.92;2.72;;;18.50;94.30;;;;;;4974443;28;20031;-70
2021/08/03 02:07:20;;;;;;;2.50;2.30;;;18.60;94.80;;;;;;4972982;28;20117;-70
2021/08/03 02:09:47;;;;;;;;;;;18.50;94.10;;;;;;4974702;28;20023;-69
2021/08/03 02:12:15;;;;;;;2.50;2.40;;;18.40;93.90;;;;;;4972800;28;19914;-69
2021/08/03 02:14:46;;;;;;;5.07;2.80;;;18.40;94.60;;;;;;4972884;28;20038;-69
2021/08/03 02:17:25;;;;;;;2.30;2.20;;;18.50;93.20;;;;;;4974355;28;20027;-69
2021/08/03 02:19:53;;;;;;;2.15;2.00;;;18.70;92.10;;;;;;4974166;28;20088;-70
2021/08/03 02:22:20;;;;;;;2.10;2.00;;;18.80;93.20;;;;;;4972891;28;20055;-69
2021/08/03 02:24:48;;;;;;;2.30;2.20;;;19.00;90.80;;;;;;4974161;28;20033;-70
2021/08/03 02:27:15;;;;;;;3.05;2.20;;;19.10;91.20;;;;;;4974186;28;20022;-68
2021/08/03 02:29:46;;;;;;;2.67;2.20;;;19.20;91.00;;;;;;4972819;28;20395;-69
2021/08/03 02:32:16;;;;;;;2.60;2.40;;;19.20;90.80;;;;;;4972865;28;20022;-69
2021/08/03 02:34:43;;;;;;;2.60;2.40;;;19.30;90.80;;;;;;4974309;28;20031;-69
2021/08/03 02:37:15;;;;;;;2.50;2.30;;;19.30;89.60;;;;;;4974006;28;20073;-69
2021/08/03 02:39:44;;;;;;;2.50;2.22;;;19.50;90.30;;;;;;4974008;28;20027;-69
2021/08/03 02:42:12;;;;;;;2.78;2.58;;;19.40;89.00;;;;;;4973918;28;20090;-69
2021/08/03 02:44:41;;;;;;;2.50;2.40;;;19.40;88.20;;;;;;4972710;28;20062;-69
2021/08/03 02:47:26;;;;;;;2.40;2.30;;;19.50;88.00;;;;;;4973847;28;20026;-69
2021/08/03 02:49:53;;;;;;;2.70;2.50;;;19.50;87.90;;;;;;4973991;28;20029;-69
2021/08/03 02:52:27;;;;;;;2.67;2.50;;;19.50;89.60;;;;;;4972498;28;20035;-69
2021/08/03 02:55:15;;;;;;;1.88;1.77;;;19.60;88.90;;;;;;4975913;28;20102;-70
2021/08/03 02:57:47;;;;;;;1.70;1.60;;;19.60;89.00;;;;;;4977904;28;20023;-69
2021/08/03 03:00:15;;;;;;;1.55;1.55;;;19.70;87.80;;;;;;4976408;28;20133;-70
2021/08/03 03:02:45;;;;;;;2.72;1.60;;;19.50;88.00;;;;;;4976623;28;20114;-69
2021/08/03 03:05:28;;;;;;;2.20;2.05;;;19.40;87.20;;;;;;4977876;28;20019;-70
2021/08/03 03:08:06;;;;;;;1.95;1.85;;;19.40;88.60;;;;;;4976273;28;20026;-69
2021/08/03 03:10:37;;;;;;;1.90;1.80;;;19.50;88.30;;;;;;4977651;28;20026;-70
2021/08/03 03:13:32;;;;;;;1.95;1.85;;;19.40;87.10;;;;;;4977259;28;20050;-70
2021/08/03 03:16:02;;;;;;;2.00;1.90;;;19.30;84.90;;;;;;4977417;28;20026;-68
2021/08/03 03:18:30;;;;;;;2.20;2.10;;;19.30;85.20;;;;;;4976077;28;20443;-70
2021/08/03 03:20:58;;;;;;;1.80;1.70;;;19.40;84.70;;;;;;4977413;28;20086;-69
2021/08/03 03:23:26;;;;;;;2.20;2.00;;;19.50;81.50;;;;;;4975971;28;20138;-69
2021/08/03 03:25:55;;;;;;;1.80;1.70;;;19.50;82.30;;;;;;4977109;28;20023;-70
2021/08/03 03:28:29;;;;;;;2.28;2.17;;;19.50;81.80;;;;;;4977101;28;20041;-70
2021/08/03 03:30:57;;;;;;;2.33;2.22;;;19.50;80.80;;;;;;4975899;28;20086;-70
2021/08/03 03:33:25;;;;;;;2.92;2.10;;;19.50;80.50;;;;;;4977086;28;20027;-69
2021/08/03 03:35:57;;;;;;;2.20;2.10;;;19.40;80.50;;;;;;4977089;28;20411;-69
2021/08/03 03:38:29;;;;;;;1.92;1.90;;;19.40;79.70;;;;;;4975699;28;20030;-69
2021/08/03 03:40:58;;;;;;;2.30;2.20;;;19.50;80.50;;;;;;4976956;28;20085;-69
2021/08/03 03:43:29;;;;;;;2.03;1.90;;;19.50;80.60;;;;;;4976946;28;20015;-70
2021/08/03 03:46:12;;;;;;;2.20;2.10;;;19.40;78.90;;;;;;4976804;28;20054;-70
2021/08/03 03:49:02;;;;;;;2.10;2.10;;;19.40;78.60;;;;;;4976832;28;20078;-70
2021/08/03 03:51:31;;;;;;;2.50;2.30;;;19.30;80.20;;;;;;4966996;28;20113;-70
2021/08/03 03:54:05;;;;;;;2.05;1.95;;;19.30;80.30;;;;;;4976646;28;20098;-67
2021/08/03 03:56:37;;;;;;;1.85;1.75;;;19.20;79.10;;;;;;4976663;28;20022;-70
2021/08/03 03:59:06;;;;;;;2.20;2.10;;;19.30;80.40;;;;;;4976517;28;20336;-68
2021/08/03 04:01:34;;;;;;;2.15;1.80;;;19.30;78.30;;;;;;4975182;28;20479;-68
2021/08/03 04:04:05;;;;;;;1.85;1.85;;;19.50;79.30;;;;;;4976318;28;20073;-69
2021/08/03 04:06:34;;;;;;;1.88;1.77;;;19.40;78.50;;;;;;4975367;28;20023;-69
2021/08/03 04:09:01;;;;;;;1.90;1.80;;;19.30;77.90;;;;;;4976238;28;20046;-68
2021/08/03 04:11:28;;;;;;;2.17;2.03;;;19.30;78.30;;;;;;4976094;28;20027;-68
2021/08/03 04:13:57;;;;;;;2.03;1.92;;;19.20;78.00;;;;;;4976519;28;20035;-69
2021/08/03 04:16:24;;;;;;;2.30;2.20;;;19.20;77.70;;;;;;4974872;28;20023;-69
2021/08/03 04:18:51;;;;;;;2.60;2.50;;;19.10;77.40;;;;;;4976222;28;20395;-68
2021/08/03 04:21:19;;;;;;;2.30;2.20;;;19.10;78.40;;;;;;4976160;28;20031;-69
2021/08/03 04:23:46;;;;;;;2.80;2.60;;;19.10;78.90;;;;;;4976159;28;20550;-69
2021/08/03 04:26:13;;;;;;;2.60;2.50;;;19.20;80.00;;;;;;4974726;28;20134;-69
2021/08/03 04:28:41;;;;;;;2.42;2.25;;;19.30;78.10;;;;;;4975975;28;20023;-68
2021/08/03 04:31:08;;;;;;;2.10;2.10;;;19.10;78.20;;;;;;4976489;28;20130;-69
2021/08/03 04:33:37;;;;;;;2.28;2.08;;;19.10;78.60;;;;;;4976005;28;20023;-69
2021/08/03 04:36:05;;;;;;;1.80;1.80;;;18.90;78.00;;;;;;4975831;28;20019;-69
2021/08/03 04:38:33;;;;;;;2.22;2.10;;;18.90;78.70;;;;;;4975687;28;20105;-69
2021/08/03 04:41:00;;;;;;;1.92;1.83;;;18.90;78.10;;;;;;4975947;28;20110;-68
2021/08/03 04:43:28;;;;;;;2.50;1.70;;;18.80;79.80;;;;;;4975699;28;20027;-70
2021/08/03 04:45:56;;;;;;;2.47;1.90;;;18.70;78.90;;;;;;4975683;28;20022;-70
2021/08/03 04:48:23;;;;;;;1.98;1.88;;;18.60;78.10;;;;;;4975728;28;20046;-71
2021/08/03 04:50:51;;;;;;;2.35;2.15;;;18.60;78.40;;;;;;4975664;28;20396;-69
2021/08/03 04:53:18;;;;;;;1.90;1.80;;;18.60;78.30;;;;;;4975465;28;20026;-67
2021/08/03 04:55:45;;;;;;;2.30;2.20;;;18.60;78.00;;;;;;4975550;28;20054;-69
2021/08/03 04:58:13;;;;;;;1.85;1.70;;;18.60;78.90;;;;;;4973860;28;20077;-68
2021/08/03 05:00:41;;;;;;;2.00;1.88;;;18.60;79.90;;;;;;4975182;28;20038;-69
2021/08/03 05:03:10;;;;;;;2.25;2.00;;;18.60;79.70;;;;;;4975270;28;20018;-69
2021/08/03 05:05:38;;;;;;;2.30;2.20;;;18.50;78.70;;;;;;4973896;28;20099;-68
2021/08/03 05:08:05;;;;;;;2.42;2.33;;;18.30;79.40;;;;;;4975203;28;20384;-69
2021/08/03 05:10:33;;;;;;;2.55;2.45;;;18.30;79.80;;;;;;4975313;28;20018;-68
2021/08/03 05:13:00;;;;;;;2.33;2.22;;;18.20;80.70;;;;;;4974900;28;20593;-68
2021/08/03 05:15:28;;;;;;;2.47;2.38;;;18.20;79.90;;;;;;4973903;28;20505;-69
2021/08/03 05:17:56;;;;;;;2.80;2.53;;;18.10;78.30;;;;;;4973471;28;20054;-69
2021/08/03 05:20:23;;;;;;;2.60;2.50;;;18.00;77.30;;;;;;4974817;28;20488;-69
2021/08/03 05:22:51;;;;;;;3.13;2.95;;;18.00;77.50;;;;;;4974996;28;20026;-69
2021/08/03 05:25:18;;;;;;;2.50;2.40;;;17.90;75.80;;;;;;4974882;28;20031;-70
2021/08/03 05:27:48;;;;;;;2.45;2.40;;;17.90;76.30;;;;;;4973672;28;20070;-70
2021/08/03 05:30:15;;;;;;;2.17;2.15;;;17.70;76.30;;;;;;4974857;28;20102;-70
2021/08/03 05:32:43;;;;;;;2.25;2.20;;;17.70;78.00;;;;;;4974721;28;20547;-70
2021/08/03 05:35:10;;;;;;;2.63;2.40;;;17.70;78.20;;;;;;4973418;28;20105;-70
2021/08/03 05:37:38;;;;;;;2.60;2.50;;;17.80;78.60;;;;;;4973323;28;20027;-69
2021/08/03 05:40:09;;;;;;;2.63;2.38;;;17.60;76.90;;;;;;4973241;28;20030;-70
2021/08/03 05:42:40;;;;;;;4.53;2.30;;;17.70;76.80;;;;;;4973324;28;20026;-70
2021/08/03 05:45:08;;;;;;;2.50;2.40;;;17.60;77.80;;;;;;4973637;28;20110;-70
2021/08/03 05:47:35;;;;;;;2.17;2.00;;;17.60;79.90;;;;;;4974478;28;20019;-69
2021/08/03 05:50:05;;;;;;;2.10;2.00;;;17.50;78.80;;;;;;4973026;28;20438;-70
2021/08/03 05:52:33;;;;;;;1.95;1.95;;;17.40;78.10;;;;;;4974454;28;20463;-70
2021/08/03 05:55:01;;;;;;;2.50;2.40;;;17.30;78.80;;;;;;4974404;28;20129;-70
2021/08/03 05:57:31;;;;;;;2.70;2.60;;;17.40;90.40;;;;;;4974497;28;20105;-70
2021/08/03 05:59:58;;;;;;;3.00;2.80;;;17.30;90.60;;;;;;4974809;28;20015;-70
2021/08/03 06:02:26;;;;;;;3.30;2.70;;;17.30;90.10;;;;;;4972962;28;20451;-70
2021/08/03 06:04:54;;;;;;;2.63;2.50;;;17.20;90.10;;;;;;4974363;28;20034;-69
2021/08/03 06:07:28;;;;;;;2.45;2.30;;;17.20;90.20;;;;;;4974206;28;20045;-69
2021/08/03 06:09:57;;;;;;;2.40;2.30;;;17.20;90.00;;;;;;4974303;28;20033;-71
2021/08/03 06:12:26;;;;;;;2.58;2.47;;;17.10;90.00;;;;;;4974029;28;20122;-71
2021/08/03 06:15:01;;;;;;;2.50;2.40;;;17.10;90.50;;;;;;4974256;28;20483;-70
2021/08/03 06:17:39;;;;;;;2.40;2.20;;;17.00;90.10;;;;;;4974232;28;20138;-70
2021/08/03 06:20:07;;;;;;;2.13;2.03;;;17.00;90.10;;;;;;4974049;28;20038;-73
2021/08/03 06:22:39;;;;;;;2.40;2.30;;;16.90;89.90;;;;;;4974349;28;20068;-72
2021/08/03 06:25:14;;;;;;;3.30;2.58;;;16.80;89.90;;;;;;4974106;28;20023;-72
2021/08/03 06:27:43;;;;;;;2.10;2.00;;;16.80;90.00;;;;;;4972678;28;20027;-71
2021/08/03 06:30:12;;;;;;;2.30;2.20;;;16.80;89.60;;;;;;4973460;28;20053;-76
2021/08/03 06:32:42;;;;;;;2.30;2.20;;;16.70;89.70;;;;;;4972624;28;20042;-73
2021/08/03 06:35:10;;;;;;;;;;;16.70;90.30;;;;;;4974727;28;20539;-72
2021/08/03 06:37:38;;;;;;;2.40;2.30;;;16.60;89.50;;;;;;4972458;28;19905;-70
2021/08/03 06:40:06;;;;;;;2.40;2.20;;;16.60;89.60;;;;;;4973671;28;20027;-73
2021/08/03 06:42:41;;;;;;;2.50;2.40;;;16.50;89.90;;;;;;4973739;28;20019;-71
2021/08/03 06:45:20;;;;;;;2.38;2.20;;;16.40;90.40;;;;;;4974070;28;20053;-74
2021/08/03 06:48:05;;;;;;;2.55;2.35;;;16.40;90.20;;;;;;4973791;28;20027;-72
2021/08/03 06:50:35;;;;;;;2.20;2.10;;;16.40;88.70;;;;;;4973857;28;20019;-72
2021/08/03 06:53:06;;;;;;;2.35;2.25;;;16.30;88.70;;;;;;4973914;28;20113;-70
2021/08/03 06:55:34;;;;;;;;;;;16.20;88.90;;;;;;4974350;28;20554;-71
2021/08/03 06:58:06;;;;;;;2.30;2.20;;;16.10;88.90;;;;;;4973870;28;20235;-73
2021/08/03 07:00:42;;;;;;;2.70;2.60;;;16.10;89.10;;;;;;4972359;28;20086;-73
2021/08/03 07:03:10;;;;;;;2.42;2.33;;;16.00;89.30;;;;;;4973645;28;20076;-73
2021/08/03 07:05:54;;;;;;;2.40;2.20;;;16.00;88.90;;;;;;4973632;28;20050;-74
2021/08/03 07:08:21;;;;;;;2.00;1.90;;;15.90;89.80;;;;;;4973760;28;20027;-74
2021/08/03 07:10:53;;;;;;;2.00;1.90;;;15.80;89.80;;;;;;4973688;28;20031;-73
2021/08/03 07:13:21;;;;;;;1.75;1.70;;;15.80;89.80;;;;;;4973537;28;20082;-72
2021/08/03 07:15:50;;;;;;;2.20;2.10;;;15.70;90.00;;;;;;4973392;28;20502;-73
2021/08/03 07:18:20;;;;;;;2.30;2.20;;;15.70;90.10;;;;;;4972138;28;20038;-71
2021/08/03 07:20:49;;;;;;;2.13;2.03;;;15.60;90.20;;;;;;4973484;28;20436;-73
2021/08/03 07:23:20;;;;;;;2.03;1.92;;;15.60;90.40;;;;;;4973509;28;20134;-70
2021/08/03 07:25:52;;;;;;;1.88;1.70;;;15.50;91.00;;;;;;4973567;28;20023;-71
2021/08/03 07:28:20;;;;;;;1.90;1.90;;;15.40;90.70;;;;;;4971876;28;20070;-71
2021/08/03 07:30:48;;;;;;;2.00;1.90;;;15.40;87.70;;;;;;4972158;28;20031;-74
2021/08/03 07:33:17;;;;;;;1.77;1.77;;;15.30;85.90;;;;;;4972177;28;20030;-72
2021/08/03 07:35:44;;;;;;;2.30;2.20;;;15.10;85.80;;;;;;4973276;28;20038;-72
2021/08/03 07:38:13;;;;;;;2.30;2.20;;;15.20;85.70;;;;;;4973424;28;20542;-70
2021/08/03 07:40:41;;;;;;;2.40;2.20;;;15.20;86.00;;;;;;4973929;28;20038;-71
2021/08/03 07:43:09;;;;;;;2.35;2.25;;;15.20;85.80;;;;;;4975681;28;20030;-71
2021/08/03 07:45:38;;;;;;;2.10;2.00;;;15.10;86.10;;;;;;4975633;28;20058;-73
2021/08/03 07:48:09;;;;;;;2.55;2.45;;;15.00;86.10;;;;;;4976856;28;20045;-74
2021/08/03 07:50:37;;;;;;;2.38;2.28;;;14.90;86.60;;;;;;4975482;28;20030;-72
2021/08/03 07:53:05;;;;;;;2.38;2.28;;;14.80;86.60;;;;;;4976774;28;20027;-72
2021/08/03 07:55:32;;;;;;;2.58;2.40;;;14.90;85.70;;;;;;4976670;28;20467;-72
2021/08/03 07:57:59;;;;;;;2.50;2.35;;;14.80;85.70;;;;;;4976871;28;20042;-72
2021/08/03 08:00:27;;;;;;;2.33;2.22;;;14.80;85.40;;;;;;4976719;28;20092;-73
2021/08/03 08:02:56;;;;;;;2.78;2.35;;;14.70;86.20;;;;;;4975331;28;20059;-72
2021/08/03 08:05:24;;;;;;;2.35;2.25;;;14.70;85.80;;;;;;4976480;28;20026;-71
2021/08/03 08:07:57;;;;;;;2.35;2.25;;;14.60;85.80;;;;;;4974925;28;20483;-72
2021/08/03 08:10:25;;;;;;;2.00;1.90;;;14.50;86.30;;;;;;4976424;28;20037;-72
2021/08/03 08:12:52;;;;;;;2.70;2.50;;;14.40;86.80;;;;;;4975947;28;20046;-70
2021/08/03 08:15:20;;;;;;;2.10;2.10;;;14.40;86.60;;;;;;4976385;28;20164;-72
2021/08/03 08:17:47;;;;;;;2.40;2.30;;;14.40;86.70;;;;;;4976269;28;20413;-72
2021/08/03 08:20:15;;;;;;;2.10;2.00;;;14.30;87.30;;;;;;4976097;28;20031;-72
2021/08/03 08:22:45;;;;;;;2.13;2.03;;;14.30;87.30;;;;;;4976332;28;20023;-72
2021/08/03 08:25:13;;;;;;;2.00;1.90;;;14.30;87.30;;;;;;4976350;28;20023;-71
2021/08/03 08:27:44;;;;;;;2.17;2.00;;;14.20;87.60;;;;;;4976176;28;20031;-71
2021/08/03 08:30:12;;;;;;;2.00;1.90;;;14.20;87.70;;;;;;4974744;28;20443;-70
2021/08/03 08:32:42;;;;;;;2.22;2.13;;;14.10;87.80;;;;;;4974800;28;20031;-71
2021/08/03 08:35:10;;;;;;;2.42;2.22;;;14.10;88.60;;;;;;4974908;28;20039;-73
2021/08/03 08:37:37;;;;;;;2.38;2.25;;;14.10;88.50;;;;;;4974673;28;20023;-71
2021/08/03 08:40:09;;;;;;;2.42;2.22;;;14.00;88.50;;;;;;4975754;28;20026;-70
2021/08/03 08:42:38;;;;;;;2.42;2.30;;;14.00;89.00;;;;;;4975837;28;20427;-73
2021/08/03 08:45:06;;;;;;;2.50;2.40;;;14.00;89.50;;;;;;4974568;28;20027;-71
2021/08/03 08:47:35;;;;;;;2.45;2.35;;;14.00;90.60;;;;;;4975899;28;20019;-72
2021/08/03 08:50:09;;;;;;;2.17;2.08;;;13.90;90.70;;;;;;4975518;28;20023;-70
2021/08/03 08:52:38;;;;;;;2.35;1.60;;;13.90;90.50;;;;;;4975228;28;20388;-73
2021/08/03 08:55:07;;;;;;;1.85;1.75;;;13.90;90.70;;;;;;4975700;28;20034;-71
2021/08/03 08:57:35;;;;;;;1.85;1.75;;;13.90;90.60;;;;;;4974284;28;20173;-72
2021/08/03 09:00:05;;;;;;;2.20;2.10;;;13.80;90.50;;;;;;4975299;28;20109;-72
2021/08/03 09:02:35;;;;;;;2.13;2.10;;;13.60;89.40;;;;;;4975472;28;20019;-72
2021/08/03 09:05:03;;;;;;;2.42;2.22;;;13.60;89.80;;;;;;4973969;28;20031;-72
2021/08/03 09:07:31;;;;;;;2.38;2.28;;;13.60;89.60;;;;;;4975462;28;20054;-72
2021/08/03 09:10:00;;;;;;;2.53;2.33;;;13.50;90.10;;;;;;4975317;28;20411;-72
2021/08/03 09:12:35;;;;;;;2.78;2.58;;;13.40;90.30;;;;;;4973604;28;20047;-72
2021/08/03 09:15:18;;;;;;;2.65;2.45;;;13.30;90.40;;;;;;4973881;28;20035;-73
2021/08/03 09:17:46;;;;;;;2.20;2.10;;;13.30;90.60;;;;;;4975132;28;20027;-72
2021/08/03 09:20:17;;;;;;;2.20;2.00;;;13.20;90.40;;;;;;4973720;28;20125;-73
2021/08/03 09:22:50;;;;;;;2.20;2.00;;;13.30;90.80;;;;;;4974891;28;20019;-72
2021/08/03 09:25:19;;;;;;;2.08;2.00;;;13.30;90.70;;;;;;4973552;28;20031;-70
2021/08/03 09:27:48;;;;;;;1.92;1.83;;;13.30;90.50;;;;;;4974990;28;20098;-69
2021/08/03 09:30:18;;;;;;;2.05;1.95;;;13.30;90.50;;;;;;4973504;28;20121;-71
2021/08/03 09:32:48;;;;;;;2.00;1.90;;;13.30;90.40;;;;;;4974924;28;20034;-71
2021/08/03 09:35:18;;;;;;;2.00;1.95;;;13.20;91.30;;;;;;4974643;28;20039;-70
2021/08/03 09:37:46;;;;;;;1.90;1.80;;;13.10;90.60;;;;;;4974802;28;20102;-71
2021/08/03 09:40:34;;;;;;;1.92;1.90;;;13.10;90.60;;;;;;4974517;28;20026;-70
2021/08/03 09:43:03;;;;;;;2.08;2.00;;;13.10;90.80;;;;;;4974563;28;20059;-69
2021/08/03 09:45:33;;;;;;;2.03;1.92;;;13.10;90.70;;;;;;4973111;28;20395;-69
2021/08/03 09:48:12;;;;;;;2.10;2.00;;;13.10;90.80;;;;;;4973047;28;20019;-70
2021/08/03 09:50:56;;;;;;;2.65;2.00;;;13.00;90.80;;;;;;4974382;28;20031;-70
2021/08/03 09:53:43;;;;;;;2.35;2.25;;;12.90;91.20;;;;;;4974365;28;20027;-70
2021/08/03 09:56:13;;;;;;;2.20;2.10;;;12.70;91.50;;;;;;4973013;28;20117;-70
2021/08/03 09:58:59;;;;;;;2.15;2.05;;;12.70;91.80;;;;;;4974622;28;20062;-70
2021/08/03 10:01:33;;;;;;;1.92;1.80;;;12.70;92.20;;;;;;4974188;28;20112;-71
2021/08/03 10:04:06;;;;;;;2.40;2.20;;;12.50;92.20;;;;;;4972024;28;20077;-70
2021/08/03 10:06:36;;;;;;;1.92;1.83;;;12.50;92.40;;;;;;4974883;28;20022;-70
2021/08/03 10:09:05;;;;;;;1.88;1.70;;;12.50;92.30;;;;;;4974696;28;20031;-70
2021/08/03 10:11:33;;;;;;;2.10;2.00;;;12.40;92.40;;;;;;4972930;28;20039;-70
2021/08/03 10:14:01;;;;;;;2.15;2.05;;;12.40;92.50;;;;;;4974857;28;20045;-71
2021/08/03 10:16:28;;;;;;;2.42;2.22;;;12.40;92.60;;;;;;4974466;28;20109;-71
2021/08/03 10:18:58;;;;;;;2.10;2.00;;;12.30;92.60;;;;;;4973184;28;20030;-70
2021/08/03 10:21:46;;;;;;;2.10;2.00;;;12.30;92.80;;;;;;4974860;28;20033;-70
2021/08/03 10:24:25;;;;;;;2.45;2.25;;;12.20;93.20;;;;;;4973084;28;20475;-70
2021/08/03 10:27:07;;;;;;;2.60;2.35;;;12.20;93.20;;;;;;4974353;28;20030;-70
2021/08/03 10:29:47;;;;;;;3.13;2.20;;;12.20;93.00;;;;;;4974326;28;20024;-72
2021/08/03 10:32:37;;;;;;;2.42;2.22;;;12.10;92.90;;;;;;4974313;28;20031;-70
2021/08/03 10:35:05;;;;;;;2.28;2.17;;;12.10;92.70;;;;;;4972989;28;20066;-71
2021/08/03 10:37:57;;;;;;;2.20;2.10;;;12.10;92.20;;;;;;4972558;28;20027;-69
2021/08/03 10:40:46;;;;;;;2.45;2.30;;;12.10;92.50;;;;;;4973707;28;20059;-70
2021/08/03 10:43:35;;;;;;;2.63;2.53;;;12.10;92.30;;;;;;4973892;28;20022;-70
2021/08/03 10:46:08;;;;;;;2.90;2.70;;;12.00;92.50;;;;;;4973841;28;20042;-70
2021/08/03 10:48:38;;;;;;;2.60;2.38;;;12.00;92.50;;;;;;4973951;28;20509;-70
2021/08/03 10:51:17;;;;;;;2.63;2.42;;;11.90;92.20;;;;;;4973797;28;20023;-70
2021/08/03 10:54:13;;;;;;;2.60;2.40;;;11.90;92.40;;;;;;4973742;28;20023;-71
2021/08/03 10:56:56;;;;;;;2.58;2.40;;;11.80;92.20;;;;;;4973720;28;20026;-70
2021/08/03 10:59:33;;;;;;;3.30;2.38;;;11.80;91.90;;;;;;4973457;28;20058;-70
2021/08/03 11:02:03;;;;;;;2.33;2.22;;;11.80;92.30;;;;;;4972220;28;20030;-71
2021/08/03 11:04:49;;;;;;;2.40;2.30;;;11.70;92.10;;;;;;4973593;28;20432;-71
2021/08/03 11:07:37;;;;;;;2.70;2.50;;;11.70;92.20;;;;;;4972295;28;20023;-69
2021/08/03 11:10:10;;;;;;;2.40;2.30;;;11.70;92.00;;;;;;4973585;28;20077;-69
2021/08/03 11:12:39;;;;;;;2.45;2.20;;;11.70;92.30;;;;;;4973405;28;20073;-69
2021/08/03 11:15:25;;;;;;;2.25;2.15;;;11.60;92.40;;;;;;4974438;28;20023;-70
2021/08/03 11:17:57;;;;;;;2.90;2.70;;;11.60;92.00;;;;;;4977315;28;20479;-70
2021/08/03 11:20:39;;;;;;;2.70;2.50;;;11.60;92.10;;;;;;4977223;28;20030;-71
2021/08/03 11:23:08;;;;;;;2.92;2.72;;;11.60;92.10;;;;;;4975849;28;20563;-70
2021/08/03 11:25:36;;;;;;;2.72;2.60;;;11.60;92.30;;;;;;4977212;28;20023;-70
2021/08/03 11:28:11;;;;;;;2.58;2.38;;;11.60;92.20;;;;;;4975794;28;20073;-70
2021/08/03 11:30:39;;;;;;;2.70;2.60;;;11.60;92.30;;;;;;4977175;28;20033;-70
2021/08/03 11:33:07;;;;;;;2.58;2.42;;;11.60;92.40;;;;;;4977023;28;20029;-70
2021/08/03 11:35:35;;;;;;;3.05;2.30;;;11.70;91.90;;;;;;4975871;28;20065;-70
2021/08/03 11:38:08;;;;;;;2.95;2.67;;;11.70;91.90;;;;;;4977070;28;20106;-70
2021/08/03 11:40:36;;;;;;;3.25;2.80;;;11.80;92.00;;;;;;4975326;28;20026;-70
2021/08/03 11:43:05;;;;;;;3.17;2.50;;;11.70;92.20;;;;;;4976912;28;20027;-70
2021/08/03 11:45:42;;;;;;;2.85;2.75;;;11.70;92.30;;;;;;4976890;28;20023;-70
2021/08/03 11:48:23;;;;;;;2.80;2.67;;;11.70;92.40;;;;;;4976899;28;20023;-70
2021/08/03 11:50:51;;;;;;;2.80;2.65;;;11.70;92.50;;;;;;4976754;28;20077;-70
2021/08/03 11:53:23;;;;;;;3.13;2.58;;;11.70;92.60;;;;;;4975251;28;20165;-71
2021/08/03 11:55:53;;;;;;;2.70;2.50;;;11.60;92.70;;;;;;4975188;28;20027;-71
2021/08/03 11:58:29;;;;;;;2.83;2.63;;;11.60;93.40;;;;;;4976824;28;20023;-70
2021/08/03 12:00:59;;;;;;;2.75;2.50;;;11.60;93.20;;;;;;4975411;28;20031;-70
2021/08/03 12:03:35;;;;;;;2.70;2.42;;;11.60;93.90;;;;;;4976577;28;20032;-70
2021/08/03 12:06:06;;;;;;;2.45;2.13;;;11.60;93.10;;;;;;4976771;28;20384;-71
2021/08/03 12:08:35;;;;;;;2.10;2.00;;;11.60;93.70;;;;;;4976577;28;20029;-70
2021/08/03 12:11:03;;;;;;;2.92;2.22;;;11.60;93.30;;;;;;4976862;28;20050;-71
2021/08/03 12:13:38;;;;;;;2.67;2.35;;;11.60;93.30;;;;;;4975037;28;20055;-70
2021/08/03 12:16:07;;;;;;;2.40;2.30;;;11.70;93.30;;;;;;4976849;28;20054;-71
2021/08/03 12:18:44;;;;;;;2.50;2.30;;;11.80;93.30;;;;;;4976628;28;20023;-71
2021/08/03 12:21:13;;;;;;;2.63;2.53;;;11.70;93.60;;;;;;4976507;28;20034;-71
2021/08/03 12:23:41;;;;;;;2.50;2.40;;;11.80;93.90;;;;;;4976772;28;20409;-71
2021/08/03 12:26:22;;;;;;;2.53;2.42;;;11.80;93.60;;;;;;4974995;28;20034;-70
2021/08/03 12:28:58;;;;;;;3.13;2.90;;;11.90;93.70;;;;;;4976034;28;20030;-70
2021/08/03 12:31:41;;;;;;;2.95;2.80;;;11.90;93.50;;;;;;4974697;28;20050;-70
2021/08/03 12:34:12;;;;;;;3.72;2.90;;;12.00;93.50;;;;;;4976242;28;20497;-69
2021/08/03 12:36:51;;;;;;;2.75;2.63;;;12.00;93.50;;;;;;4976197;28;20427;-71
2021/08/03 12:39:24;;;;;;;3.17;2.97;;;11.90;94.00;;;;;;4974854;28;20027;-71
2021/08/03 12:42:22;;;;;;;3.00;2.90;;;11.90;93.60;;;;;;4976231;28;20023;-70
2021/08/03 12:44:54;;;;;;;3.10;2.90;;;12.00;93.50;;;;;;4961220;28;20102;-70
2021/08/03 12:47:26;;;;;;;3.33;2.95;;;12.00;93.50;;;;;;4976049;28;20026;-71
2021/08/03 12:50:03;;;;;;;3.55;3.25;;;12.00;93.60;;;;;;4975974;28;20030;-71
2021/08/03 12:52:31;;;;;;;3.00;2.83;;;11.90;93.90;;;;;;4974629;28;20027;-71
2021/08/03 12:55:09;;;;;;;2.95;2.75;;;11.80;93.80;;;;;;4975866;28;20109;-71
2021/08/03 12:57:54;;;;;;;3.10;2.90;;;11.80;93.90;;;;;;4974483;28;20490;-71
2021/08/03 13:00:28;;;;;;;2.88;2.78;;;11.80;94.00;;;;;;4975704;28;20357;-71
2021/08/03 13:02:56;;;;;;;3.95;2.60;;;11.80;94.40;;;;;;4975644;28;20386;-69
2021/08/03 13:05:23;;;;;;;3.17;2.97;;;11.80;94.60;;;;;;4975469;28;20405;-70
2021/08/03 13:07:51;;;;;;;2.70;2.50;;;11.80;94.60;;;;;;4975448;28;20037;-70
2021/08/03 13:10:18;;;;;;;3.05;2.75;;;11.70;94.30;;;;;;4974350;28;20031;-71